createdAt,value
2022-09-20T00:01:34.099Z,100501.59
2022-09-20T00:03:40.437Z,100503.22
2022-09-20T00:05:44.354Z,100510.03
2022-09-20T00:07:46.298Z,100509.06
2022-09-20T00:09:48.321Z,100505.69
2022-09-20T00:11:51.602Z,100516.25
2022-09-20T00:13:56.190Z,100516.25
2022-09-20T00:15:58.344Z,100509.09
2022-09-20T00:18:00.302Z,100506.34
2022-09-20T00:20:02.554Z,100502.94
2022-09-20T00:22:04.524Z,100508.28
2022-09-20T00:24:06.789Z,100506.53
2022-09-20T00:26:08.735Z,100502.31
2022-09-20T00:28:11.123Z,100501.94
2022-09-20T00:30:13.534Z,100504.84
2022-09-20T00:32:15.536Z,100507.28
2022-09-20T00:34:36.240Z,100507.47
2022-09-20T00:36:38.249Z,100514.78
2022-09-20T00:38:40.220Z,100506.97
2022-09-20T00:40:43.495Z,100508.25
2022-09-20T00:42:45.471Z,100517.16
2022-09-20T00:44:57.529Z,100512.41
2022-09-20T00:46:59.651Z,100506.41
2022-09-20T00:49:20.481Z,100514.53
2022-09-20T00:51:29.353Z,100506.94
2022-09-20T00:53:40.191Z,100508.19
2022-09-20T00:55:48.108Z,100506.78
2022-09-20T00:57:50.087Z,100507.06
2022-09-20T00:59:52.088Z,100508.03
2022-09-20T01:02:03.186Z,100519.22
2022-09-20T01:04:05.292Z,100518.44
2022-09-20T01:06:09.998Z,100504.94
2022-09-20T01:08:11.945Z,100502.19
2022-09-20T01:10:13.922Z,100511.44
2022-09-20T01:12:23.730Z,100517.75
2022-09-20T01:14:26.072Z,100515.50
2022-09-20T01:16:28.204Z,100509.16
2022-09-20T01:18:30.228Z,100510.81
2022-09-20T01:20:35.933Z,100510.44
2022-09-20T01:22:55.570Z,100510.94
2022-09-20T01:25:14.730Z,100514.06
2022-09-20T01:27:38.459Z,100513.41
2022-09-20T01:30:06.623Z,100515.84
2022-09-20T01:32:12.972Z,100508.91
2022-09-20T01:34:19.038Z,100510.66
2022-09-20T01:36:44.400Z,100524.59
2022-09-20T01:39:00.511Z,100504.78
2022-09-20T01:41:34.407Z,100509.81
2022-09-20T01:43:52.962Z,100513.19
2022-09-20T01:45:55.096Z,100508.44
2022-09-20T01:48:26.523Z,100512.69
2022-09-20T01:50:46.795Z,100512.84
2022-09-20T01:53:25.916Z,100507.44
2022-09-20T01:56:08.115Z,100503.66
2022-09-20T01:58:42.144Z,100505.44
2022-09-20T02:01:10.764Z,100508.50
2022-09-20T02:03:31.373Z,100517.59
2022-09-20T02:05:57.402Z,100508.81
2022-09-20T02:08:27.208Z,100515.44
2022-09-20T02:10:41.983Z,100508.97
2022-09-20T02:12:58.941Z,100508.63
2022-09-20T02:15:36.525Z,100511.72
2022-09-20T02:18:11.601Z,100513.66
2022-09-20T02:20:43.528Z,100510.91
2022-09-20T02:22:53.384Z,100516.41
2022-09-20T02:25:26.255Z,100527.88
2022-09-20T02:28:13.544Z,100532.56
2022-09-20T02:30:34.878Z,100538.44
2022-09-20T02:33:05.200Z,100537.59
2022-09-20T02:35:15.410Z,100546.81
2022-09-20T02:37:39.815Z,100546.50
2022-09-20T02:39:59.761Z,100549.38
2022-09-20T02:42:13.413Z,100542.69
2022-09-20T02:44:44.114Z,100551.44
2022-09-20T02:47:36.931Z,100550.13
2022-09-20T02:50:20.898Z,100552.06
2022-09-20T02:52:56.413Z,100552.41
2022-09-20T02:55:18.887Z,100549.00
2022-09-20T02:58:07.346Z,100560.47
2022-09-20T03:00:25.334Z,100560.13
2022-09-20T03:02:52.287Z,100554.13
2022-09-20T03:05:10.223Z,100559.84
2022-09-20T03:07:51.338Z,100550.25
2022-09-20T03:10:36.732Z,100556.28
2022-09-20T03:13:08.827Z,100551.81
2022-09-20T03:15:27.275Z,100562.84
2022-09-20T03:17:36.605Z,100557.81
2022-09-20T03:20:00.694Z,100560.28
2022-09-20T03:22:30.260Z,100565.25
2022-09-20T03:25:11.943Z,100570.28
2022-09-20T03:27:43.830Z,100557.25
2022-09-20T03:30:24.692Z,100560.69
2022-09-20T03:33:09.550Z,100562.00
2022-09-20T03:35:40.276Z,100568.63
2022-09-20T03:38:15.034Z,100563.47
2022-09-20T03:41:08.843Z,100565.72
2022-09-20T03:43:51.543Z,100568.38
2022-09-20T03:46:17.227Z,100569.31
2022-09-20T03:48:53.187Z,100572.09
2022-09-20T03:51:06.951Z,100568.81
2022-09-20T03:53:32.950Z,100565.25
2022-09-20T03:55:51.399Z,100573.31
2022-09-20T03:58:21.454Z,100570.66
2022-09-20T04:00:54.336Z,100572.31
2022-09-20T04:03:31.344Z,100585.25
2022-09-20T04:05:43.452Z,100585.59
2022-09-20T04:08:08.734Z,100578.72
2022-09-20T04:10:28.758Z,100577.75
2022-09-20T04:12:39.295Z,100588.22
2022-09-20T04:14:58.098Z,100587.41
2022-09-20T04:17:23.076Z,100586.00
2022-09-20T04:19:44.729Z,100586.28
2022-09-20T04:22:00.807Z,100589.53
2022-09-20T04:24:43.163Z,100598.13
2022-09-20T04:26:47.984Z,100591.19
2022-09-20T04:29:34.121Z,100598.00
2022-09-20T04:31:43.097Z,100592.19
2022-09-20T04:33:46.117Z,100596.28
2022-09-20T04:36:31.552Z,100601.16
2022-09-20T04:38:35.728Z,100607.78
2022-09-20T04:41:08.675Z,100604.25
2022-09-20T04:43:53.724Z,100605.16
2022-09-20T04:46:26.657Z,100618.44
2022-09-20T04:48:56.666Z,100616.50
2022-09-20T04:51:42.709Z,100619.75
2022-09-20T04:54:47.737Z,100626.56
2022-09-20T04:57:49.010Z,100621.75
2022-09-20T05:00:24.520Z,100626.66
2022-09-20T05:02:46.987Z,100635.53
2022-09-20T05:05:26.948Z,100631.16
2022-09-20T05:08:05.141Z,100632.56
2022-09-20T05:10:38.089Z,100641.66
2022-09-20T05:13:22.182Z,100643.59
2022-09-20T05:15:36.383Z,100643.91
2022-09-20T05:17:59.723Z,100651.56
2022-09-20T05:20:56.865Z,100652.19
2022-09-20T05:23:20.463Z,100659.22
2022-09-20T05:25:57.366Z,100667.97
2022-09-20T05:28:10.509Z,100658.91
2022-09-20T05:31:30.448Z,100669.31
2022-09-20T05:33:49.096Z,100675.81
2022-09-20T05:36:21.509Z,100674.78
2022-09-20T05:38:42.888Z,100673.34
2022-09-20T05:41:19.493Z,100679.06
2022-09-20T05:43:35.290Z,100675.78
2022-09-20T05:45:49.915Z,100679.25
2022-09-20T05:48:36.529Z,100681.88
2022-09-20T05:50:55.735Z,100677.78
2022-09-20T05:53:38.803Z,100684.78
2022-09-20T05:56:26.105Z,100682.91
2022-09-20T05:58:50.917Z,100681.81
2022-09-20T06:01:10.542Z,100680.16
2022-09-20T06:03:46.647Z,100683.84
2022-09-20T06:06:10.704Z,100684.22
2022-09-20T06:08:46.056Z,100682.78
2022-09-20T06:11:34.755Z,100683.44
2022-09-20T06:14:15.241Z,100686.59
2022-09-20T06:16:43.266Z,100685.53
2022-09-20T06:19:19.846Z,100691.22
2022-09-20T06:21:41.999Z,100695.69
2022-09-20T06:23:44.194Z,100695.97
2022-09-20T06:26:09.325Z,100697.00
2022-09-20T06:28:22.316Z,100691.50
2022-09-20T06:30:34.073Z,100704.69
2022-09-20T06:32:36.278Z,100699.69
2022-09-20T06:34:38.219Z,100704.75
2022-09-20T06:37:02.809Z,100711.25
2022-09-20T06:39:59.544Z,100710.63
2022-09-20T06:42:01.701Z,100704.00
2022-09-20T06:44:04.050Z,100708.88
2022-09-20T06:46:06.307Z,100704.06
2022-09-20T06:48:11.709Z,100716.41
2022-09-20T06:50:17.331Z,100701.69
2022-09-20T06:52:21.553Z,100702.72
2022-09-20T06:54:23.585Z,100708.25
2022-09-20T06:56:27.876Z,100714.59
2022-09-20T06:58:29.828Z,100717.88
2022-09-20T07:00:31.790Z,100718.22
2022-09-20T07:02:33.891Z,100718.91
2022-09-20T07:04:35.996Z,100722.03
2022-09-20T07:06:38.016Z,100726.56
2022-09-20T07:08:40.014Z,100731.00
2022-09-20T07:10:43.438Z,100729.06
2022-09-20T07:12:46.392Z,100732.63
2022-09-20T07:14:50.600Z,100740.59
2022-09-20T07:16:55.949Z,100736.00
2022-09-20T07:18:57.986Z,100742.50
2022-09-20T07:21:03.255Z,100741.84
2022-09-20T07:23:05.273Z,100745.84
2022-09-20T07:25:07.970Z,100745.16
2022-09-20T07:27:11.536Z,100755.41
2022-09-20T07:29:13.681Z,100746.38
2022-09-20T07:31:19.490Z,100743.75
2022-09-20T07:33:25.141Z,100753.78
2022-09-20T07:35:27.133Z,100753.56
2022-09-20T07:37:31.848Z,100754.44
2022-09-20T07:39:35.982Z,100758.72
2022-09-20T07:41:37.994Z,100764.94
2022-09-20T07:43:39.959Z,100768.16
2022-09-20T07:45:41.960Z,100764.13
2022-09-20T07:47:46.553Z,100770.09
2022-09-20T07:49:48.522Z,100775.78
2022-09-20T07:51:50.743Z,100776.03
2022-09-20T07:53:55.191Z,100773.06
2022-09-20T07:56:05.955Z,100780.84
2022-09-20T07:58:07.904Z,100774.78
2022-09-20T08:00:11.460Z,100781.72
2022-09-20T08:02:16.816Z,100782.78
2022-09-20T08:04:18.890Z,100774.13
2022-09-20T08:06:21.892Z,100776.59
2022-09-20T08:08:24.014Z,100776.25
2022-09-20T08:10:26.893Z,100778.34
2022-09-20T08:14:51.428Z,100763.38
2022-09-20T08:16:53.460Z,100773.47
2022-09-20T08:18:58.940Z,100769.09
2022-09-20T08:21:08.430Z,100771.59
2022-09-20T08:23:23.498Z,100768.75
2022-09-20T08:25:26.084Z,100770.84
2022-09-20T08:27:28.056Z,100772.25
2022-09-20T08:29:30.086Z,100771.97
2022-09-20T08:31:34.456Z,100773.63
2022-09-20T08:33:38.086Z,100774.72
2022-09-20T08:35:40.065Z,100782.56
2022-09-20T08:37:43.709Z,100788.28
2022-09-20T08:40:01.172Z,100785.06
2022-09-20T08:42:24.214Z,100783.94
2022-09-20T08:44:35.087Z,100784.25
2022-09-20T08:46:43.390Z,100791.75
2022-09-20T08:48:45.901Z,100788.19
2022-09-20T08:50:47.857Z,100792.47
2022-09-20T08:52:53.887Z,100792.16
2022-09-20T08:54:58.124Z,100789.53
2022-09-20T08:57:07.199Z,100803.22
2022-09-20T08:59:09.545Z,100790.69
2022-09-20T09:01:23.443Z,100788.34
2022-09-20T09:03:25.428Z,100789.63
2022-09-20T09:05:48.461Z,100804.38
2022-09-20T09:07:50.449Z,100786.41
2022-09-20T09:09:53.785Z,100788.09
2022-09-20T09:11:56.962Z,100791.91
2022-09-20T09:14:04.594Z,100791.16
2022-09-20T09:16:11.767Z,100785.53
2022-09-20T09:18:13.988Z,100790.38
2022-09-20T09:20:22.610Z,100789.88
2022-09-20T09:22:39.833Z,100788.59
2022-09-20T09:24:41.858Z,100780.94
2022-09-20T09:26:43.830Z,100790.25
2022-09-20T09:28:45.807Z,100789.34
2022-09-20T09:30:47.909Z,100798.38
2022-09-20T09:32:50.038Z,100797.13
2022-09-20T09:34:52.002Z,100795.03
2022-09-20T09:36:57.028Z,100799.13
2022-09-20T09:39:26.446Z,100792.34
2022-09-20T09:41:34.409Z,100789.81
2022-09-20T09:43:37.485Z,100793.22
2022-09-20T09:45:39.635Z,100804.28
2022-09-20T09:47:41.694Z,100785.56
2022-09-20T09:50:00.281Z,100793.78
2022-09-20T09:52:14.529Z,100793.03
2022-09-20T09:54:17.818Z,100796.00
2022-09-20T09:56:33.452Z,100797.09
2022-09-20T09:59:07.985Z,100806.34
2022-09-20T10:01:30.040Z,100807.16
2022-09-20T10:03:47.162Z,100808.03
2022-09-20T10:06:12.750Z,100803.91
2022-09-20T10:08:38.937Z,100812.56
2022-09-20T10:11:12.540Z,100810.78
2022-09-20T10:13:28.204Z,100808.44
2022-09-20T10:15:35.858Z,100814.13
2022-09-20T10:18:17.306Z,100810.06
2022-09-20T10:21:04.792Z,100818.03
2022-09-20T10:23:45.026Z,100814.38
2022-09-20T10:26:04.884Z,100815.66
2022-09-20T10:28:51.928Z,100815.16
2022-09-20T10:31:07.552Z,100816.78
2022-09-20T10:33:53.561Z,100812.19
2022-09-20T10:36:12.745Z,100816.50
2022-09-20T10:38:38.529Z,100818.06
2022-09-20T10:41:09.945Z,100807.34
2022-09-20T10:43:17.317Z,100810.91
2022-09-20T10:45:59.116Z,100811.81
2022-09-20T10:48:12.377Z,100819.88
2022-09-20T10:50:35.652Z,100816.25
2022-09-20T10:53:12.008Z,100822.13
2022-09-20T10:56:08.438Z,100825.28
2022-09-20T10:58:33.443Z,100828.00
2022-09-20T11:01:00.858Z,100818.69
2022-09-20T11:03:35.824Z,100832.78
2022-09-20T11:05:57.929Z,100822.72
2022-09-20T11:08:13.085Z,100823.44
2022-09-20T11:10:36.288Z,100817.78
2022-09-20T11:12:46.166Z,100823.47
2022-09-20T11:15:00.016Z,100818.88
2022-09-20T11:18:00.714Z,100827.44
2022-09-20T11:20:27.248Z,100825.59
2022-09-20T11:22:39.956Z,100817.47
2022-09-20T11:25:21.649Z,100820.38
2022-09-20T11:27:58.992Z,100814.69
2022-09-20T11:30:40.913Z,100814.13
2022-09-20T11:33:05.160Z,100810.91
2022-09-20T11:35:15.928Z,100820.44
2022-09-20T11:37:18.235Z,100822.44
2022-09-20T11:39:41.767Z,100811.63
2022-09-20T11:41:43.761Z,100818.81
2022-09-20T11:43:46.055Z,100813.56
2022-09-20T11:45:50.201Z,100819.00
2022-09-20T11:48:00.071Z,100812.44
2022-09-20T11:50:40.127Z,100829.16
2022-09-20T11:53:13.806Z,100821.13
2022-09-20T11:55:51.255Z,100822.66
2022-09-20T11:58:13.599Z,100830.53
2022-09-20T12:00:17.843Z,100817.88
2022-09-20T12:02:40.781Z,100831.69
2022-09-20T12:04:44.732Z,100822.78
2022-09-20T12:06:46.699Z,100838.56
2022-09-20T12:08:51.712Z,100834.03
2022-09-20T12:11:12.429Z,100834.59
2022-09-20T12:13:24.461Z,100830.44
2022-09-20T12:15:31.028Z,100845.75
2022-09-20T12:17:48.134Z,100854.28
2022-09-20T12:19:50.102Z,100849.06
2022-09-20T12:22:00.562Z,100854.06
2022-09-20T12:24:17.290Z,100861.00
2022-09-20T12:26:22.141Z,100864.22
2022-09-20T12:28:41.767Z,100868.13
2022-09-20T12:30:43.809Z,100854.56
2022-09-20T12:32:52.217Z,100864.94
2022-09-20T12:34:54.184Z,100861.72
2022-09-20T12:36:55.991Z,100857.47
2022-09-20T12:39:17.527Z,100855.13
2022-09-20T12:41:28.741Z,100849.75
2022-09-20T12:43:32.034Z,100874.47
2022-09-20T12:45:34.032Z,100859.34
2022-09-20T12:47:37.216Z,100857.50
2022-09-20T12:50:06.803Z,100848.34
2022-09-20T12:52:50.459Z,100850.09
2022-09-20T12:54:53.579Z,100848.69
2022-09-20T12:56:55.528Z,100854.44
2022-09-20T12:58:57.512Z,100842.44
2022-09-20T13:01:06.859Z,100851.00
2022-09-20T13:03:27.232Z,100849.34
2022-09-20T13:05:40.721Z,100847.31
2022-09-20T13:07:44.240Z,100850.63
2022-09-20T13:09:46.631Z,100852.47
2022-09-20T13:11:57.801Z,100846.66
2022-09-20T13:14:06.242Z,100852.09
2022-09-20T13:16:12.734Z,100851.66
2022-09-20T13:18:15.512Z,100849.00
2022-09-20T13:20:23.802Z,100858.13
2022-09-20T13:22:31.372Z,100855.88
2022-09-20T13:24:45.338Z,100861.28
2022-09-20T13:26:48.197Z,100865.41
2022-09-20T13:28:51.724Z,100870.25
2022-09-20T13:31:32.666Z,100871.22
2022-09-20T13:33:34.980Z,100868.78
2022-09-20T13:35:36.841Z,100868.03
2022-09-20T13:37:45.071Z,100872.59
2022-09-20T13:39:47.235Z,100866.94
2022-09-20T13:41:49.386Z,100868.75
2022-09-20T13:43:54.189Z,100862.59
2022-09-20T13:45:59.650Z,100867.56
2022-09-20T13:48:01.929Z,100869.25
2022-09-20T13:50:27.502Z,100868.63
2022-09-20T13:52:31.220Z,100869.50
2022-09-20T13:54:33.804Z,100865.50
2022-09-20T13:56:35.759Z,100854.56
2022-09-20T13:58:37.741Z,100860.56
2022-09-20T14:00:44.979Z,100871.41
2022-09-20T14:02:49.076Z,100868.47
2022-09-20T14:04:53.790Z,100862.81
2022-09-20T14:06:57.666Z,100858.72
2022-09-20T14:09:00.232Z,100871.34
2022-09-20T14:11:06.658Z,100881.78
2022-09-20T14:13:09.608Z,100880.50
2022-09-20T14:15:15.216Z,100889.66
2022-09-20T14:17:19.381Z,100891.53
2022-09-20T14:19:25.825Z,100887.06
2022-09-20T14:21:29.489Z,100900.25
2022-09-20T14:23:31.957Z,100890.06
2022-09-20T14:25:34.586Z,100898.34
2022-09-20T14:27:36.648Z,100888.75
2022-09-20T14:29:47.020Z,100900.47
2022-09-20T14:31:49.083Z,100893.75
2022-09-20T14:33:56.071Z,100899.34
2022-09-20T14:35:58.036Z,100899.22
2022-09-20T14:38:08.503Z,100899.78
2022-09-20T14:40:28.562Z,100900.63
2022-09-20T14:42:41.451Z,100908.81
2022-09-20T14:44:43.396Z,100913.66
2022-09-20T14:46:45.396Z,100907.34
2022-09-20T14:48:47.379Z,100903.06
2022-09-20T14:51:16.321Z,100913.75
2022-09-20T14:53:24.983Z,100905.75
2022-09-20T14:55:28.633Z,100910.69
2022-09-20T14:57:32.310Z,100915.75
2022-09-20T14:59:41.810Z,100924.59
2022-09-20T15:01:57.902Z,100921.03
2022-09-20T15:04:00.366Z,100910.06
2022-09-20T15:06:02.343Z,100909.03
2022-09-20T15:08:05.485Z,100912.34
2022-09-20T15:10:13.208Z,100910.56
2022-09-20T15:12:17.768Z,100908.16
2022-09-20T15:14:19.733Z,100908.88
2022-09-20T15:16:22.009Z,100907.69
2022-09-20T15:18:26.769Z,100906.38
2022-09-20T15:20:28.829Z,100911.81
2022-09-20T15:22:32.193Z,100911.72
2022-09-20T15:24:34.173Z,100908.47
2022-09-20T15:26:36.125Z,100916.59
2022-09-20T15:28:38.129Z,100908.47
2022-09-20T15:30:40.601Z,100912.78
2022-09-20T15:32:46.434Z,100922.72
2022-09-20T15:34:48.382Z,100923.19
2022-09-20T15:36:50.830Z,100920.59
2022-09-20T15:38:54.226Z,100928.69
2022-09-20T15:40:56.185Z,100933.69
2022-09-20T15:42:59.513Z,100935.88
2022-09-20T15:45:01.475Z,100931.28
2022-09-20T15:47:04.547Z,100928.81
2022-09-20T15:49:06.744Z,100936.22
2022-09-20T15:51:11.320Z,100941.25
2022-09-20T15:53:13.360Z,100942.56
2022-09-20T15:55:15.398Z,100941.44
2022-09-20T15:57:17.364Z,100949.56
2022-09-20T15:59:23.219Z,100944.31
2022-09-20T16:01:35.650Z,100958.41
2022-09-20T16:03:37.749Z,100957.59
2022-09-20T16:05:39.730Z,100951.06
2022-09-20T16:07:42.432Z,100953.53
2022-09-20T16:11:49.631Z,100953.78
2022-09-20T16:13:55.911Z,100970.03
2022-09-20T16:16:02.094Z,100963.44
2022-09-20T16:18:22.714Z,100952.81
2022-09-20T16:20:25.175Z,100962.03
2022-09-20T16:22:28.069Z,100957.91
2022-09-20T16:24:33.187Z,100958.44
2022-09-20T16:26:35.846Z,100956.72
2022-09-20T16:28:37.755Z,100965.75
2022-09-20T16:30:39.996Z,100963.13
2022-09-20T16:32:43.056Z,100959.06
2022-09-20T16:34:45.748Z,100968.66
2022-09-20T16:36:49.240Z,100970.94
2022-09-20T16:38:52.529Z,100976.38
2022-09-20T16:40:56.048Z,100979.25
2022-09-20T16:42:59.056Z,100984.72
2022-09-20T16:45:01.483Z,100984.16
2022-09-20T16:47:10.818Z,100994.78
2022-09-20T16:49:13.861Z,100988.38
2022-09-20T16:51:15.945Z,100996.94
2022-09-20T16:53:18.272Z,101000.06
2022-09-20T16:55:21.199Z,101001.22
2022-09-20T16:57:23.262Z,101004.41
2022-09-20T16:59:25.229Z,101002.91
2022-09-20T17:01:27.699Z,100998.41
2022-09-20T17:03:29.734Z,101009.63
2022-09-20T17:05:31.730Z,101015.06
2022-09-20T17:07:33.737Z,101018.50
2022-09-20T17:09:35.723Z,101019.44
2022-09-20T17:11:45.997Z,101029.66
2022-09-20T17:13:48.062Z,101030.63
2022-09-20T17:15:50.577Z,101025.97
2022-09-20T17:17:53.473Z,101031.84
2022-09-20T17:19:56.109Z,101035.81
2022-09-20T17:21:58.713Z,101041.84
2022-09-20T17:24:01.216Z,101046.69
2022-09-20T17:26:18.813Z,101044.06
2022-09-20T17:28:20.863Z,101047.38
2022-09-20T17:30:22.822Z,101049.03
2022-09-20T17:32:25.196Z,101050.69
2022-09-20T17:34:28.159Z,101050.00
2022-09-20T17:36:32.762Z,101059.41
2022-09-20T17:38:34.921Z,101061.31
2022-09-20T17:40:36.986Z,101063.69
2022-09-20T17:42:39.334Z,101061.56
2022-09-20T17:44:41.375Z,101063.44
2022-09-20T17:46:45.361Z,101068.81
2022-09-20T17:48:50.578Z,101070.78
2022-09-20T17:50:56.315Z,101073.56
2022-09-20T17:52:58.288Z,101074.50
2022-09-20T17:55:00.239Z,101079.72
2022-09-20T17:57:02.227Z,101073.94
2022-09-20T17:59:05.489Z,101085.75
2022-09-20T18:01:14.193Z,101090.03
2022-09-20T18:03:17.559Z,101090.97
2022-09-20T18:05:19.572Z,101090.38
2022-09-20T18:07:21.541Z,101098.81
2022-09-20T18:09:25.045Z,101095.81
2022-09-20T18:11:32.274Z,101100.53
2022-09-20T18:13:34.666Z,101097.06
2022-09-20T18:15:36.637Z,101104.63
2022-09-20T18:17:38.644Z,101105.91
2022-09-20T18:19:41.311Z,101107.13
2022-09-20T18:21:43.642Z,101109.66
2022-09-20T18:23:46.202Z,101111.00
2022-09-20T18:26:06.849Z,101109.03
2022-09-20T18:28:08.983Z,101107.13
2022-09-20T18:30:11.467Z,101109.38
2022-09-20T18:32:13.463Z,101113.06
2022-09-20T18:34:20.382Z,101108.34
2022-09-20T18:36:24.536Z,101119.19
2022-09-20T18:38:26.669Z,101115.13
2022-09-20T18:40:29.816Z,101109.56
2022-09-20T18:42:31.809Z,101117.31
2022-09-20T18:44:34.072Z,101127.00
2022-09-20T18:46:38.142Z,101121.34
2022-09-20T18:48:40.452Z,101120.25
2022-09-20T18:50:42.479Z,101120.91
2022-09-20T18:52:44.599Z,101132.03
2022-09-20T18:54:47.206Z,101121.59
2022-09-20T18:56:50.506Z,101128.16
2022-09-20T18:59:07.153Z,101132.28
2022-09-20T19:01:36.666Z,101131.69
2022-09-20T19:04:11.340Z,101129.56
2022-09-20T19:06:13.414Z,101129.72
2022-09-20T19:08:41.204Z,101124.72
2022-09-20T19:10:54.661Z,101125.88
2022-09-20T19:13:38.313Z,101133.72
2022-09-20T19:16:11.563Z,101139.78
2022-09-20T19:18:38.850Z,101144.09
2022-09-20T19:21:04.853Z,101149.63
2022-09-20T19:23:37.818Z,101151.94
2022-09-20T19:25:45.048Z,101147.69
2022-09-20T19:27:47.436Z,101156.19
2022-09-20T19:29:49.777Z,101151.13
2022-09-20T19:31:55.561Z,101155.38
2022-09-20T19:34:00.111Z,101164.88
2022-09-20T19:36:03.296Z,101165.19
2022-09-20T19:38:24.827Z,101166.19
2022-09-20T19:40:51.820Z,101174.19
2022-09-20T19:43:05.515Z,101177.28
2022-09-20T19:46:01.022Z,101180.09
2022-09-20T19:48:50.382Z,101180.38
2022-09-20T19:50:53.152Z,101180.88
2022-09-20T19:52:58.337Z,101182.84
2022-09-20T19:55:00.910Z,101195.41
2022-09-20T19:57:02.905Z,101189.84
2022-09-20T19:59:05.679Z,101190.34
2022-09-20T20:01:08.330Z,101194.75
2022-09-20T20:03:12.585Z,101195.88
2022-09-20T20:05:17.414Z,101195.53
2022-09-20T20:07:27.796Z,101202.25
2022-09-20T20:10:01.228Z,101201.91
2022-09-20T20:12:14.568Z,101207.16
2022-09-20T20:14:24.948Z,101196.06
2022-09-20T20:16:39.891Z,101203.72
2022-09-20T20:19:09.060Z,101198.47
2022-09-20T20:21:31.603Z,101210.25
2022-09-20T20:23:51.615Z,101210.88
2022-09-20T20:26:23.455Z,101206.50
2022-09-20T20:28:25.824Z,101211.53
2022-09-20T20:30:27.755Z,101216.13
2022-09-20T20:32:29.695Z,101217.09
2022-09-20T20:34:31.649Z,101218.06
2022-09-20T20:36:33.621Z,101213.19
2022-09-20T20:38:37.665Z,101220.00
2022-09-20T20:40:40.839Z,101223.22
2022-09-20T20:42:43.880Z,101228.16
2022-09-20T20:44:46.140Z,101232.06
2022-09-20T20:46:48.640Z,101234.50
2022-09-20T20:48:50.615Z,101232.72
2022-09-20T20:51:12.069Z,101223.75
2022-09-20T20:53:14.500Z,101236.59
2022-09-20T20:55:16.529Z,101241.78
2022-09-20T20:57:19.053Z,101234.28
2022-09-20T20:59:21.016Z,101237.56
2022-09-20T21:01:31.261Z,101244.09
2022-09-20T21:03:34.094Z,101246.34
2022-09-20T21:05:36.302Z,101238.50
2022-09-20T21:07:38.281Z,101234.41
2022-09-20T21:09:40.250Z,101239.13
2022-09-20T21:11:46.723Z,101243.69
2022-09-20T21:13:48.902Z,101248.56
2022-09-20T21:15:50.878Z,101244.00
2022-09-20T21:17:53.284Z,101249.41
2022-09-20T21:19:55.199Z,101249.41
2022-09-20T21:21:57.143Z,101245.97
2022-09-20T21:24:02.539Z,101251.63
2022-09-20T21:26:09.289Z,101247.88
2022-09-20T21:28:11.251Z,101245.44
2022-09-20T21:30:13.793Z,101246.78
2022-09-20T21:32:15.786Z,101249.72
2022-09-20T21:34:17.770Z,101252.16
2022-09-20T21:36:23.641Z,101262.44
2022-09-20T21:38:25.619Z,101257.50
2022-09-20T21:40:27.625Z,101265.47
2022-09-20T21:42:29.678Z,101259.59
2022-09-20T21:44:31.837Z,101264.63
2022-09-20T21:46:36.043Z,101263.69
2022-09-20T21:48:38.673Z,101262.22
2022-09-20T21:50:40.619Z,101275.25
2022-09-20T21:52:46.586Z,101268.56
2022-09-20T21:54:49.001Z,101261.41
2022-09-20T21:56:52.964Z,101267.28
2022-09-20T21:58:55.219Z,101264.63
2022-09-20T22:01:15.155Z,101261.22
2022-09-20T22:03:17.168Z,101269.72
2022-09-20T22:05:19.157Z,101270.34
2022-09-20T22:07:21.194Z,101272.50
2022-09-20T22:09:25.028Z,101263.06
2022-09-20T22:11:32.437Z,101272.75
2022-09-20T22:13:34.969Z,101265.00
2022-09-20T22:15:36.966Z,101263.34
2022-09-20T22:17:38.956Z,101269.53
2022-09-20T22:19:40.972Z,101266.56
2022-09-20T22:21:48.166Z,101270.19
2022-09-20T22:23:57.346Z,101272.13
2022-09-20T22:26:04.958Z,101269.69
2022-09-20T22:28:07.011Z,101274.72
2022-09-20T22:30:10.143Z,101268.22
2022-09-20T22:32:12.092Z,101280.31
2022-09-20T22:34:24.893Z,101279.34
2022-09-20T22:36:38.312Z,101278.84
2022-09-20T22:38:43.829Z,101279.69
2022-09-20T22:40:56.213Z,101278.84
2022-09-20T22:42:58.162Z,101272.69
2022-09-20T22:45:00.413Z,101283.31
2022-09-20T22:47:02.405Z,101282.13
2022-09-20T22:49:07.786Z,101276.72
2022-09-20T22:51:17.831Z,101284.22
2022-09-20T22:53:19.780Z,101285.53
2022-09-20T22:55:24.406Z,101276.28
2022-09-20T22:57:26.988Z,101276.75
2022-09-20T22:59:28.948Z,101280.50
2022-09-20T23:01:37.352Z,101278.38
2022-09-20T23:03:40.751Z,101284.88
2022-09-20T23:05:44.593Z,101282.94
2022-09-20T23:07:48.672Z,101276.91
2022-09-20T23:09:50.648Z,101275.75
2022-09-20T23:11:52.590Z,101277.09
2022-09-20T23:13:56.482Z,101276.75
2022-09-20T23:15:58.639Z,101271.56
2022-09-20T23:18:00.621Z,101271.38
2022-09-20T23:20:03.768Z,101273.81
2022-09-20T23:22:05.745Z,101282.94
2022-09-20T23:24:09.717Z,101285.53
2022-09-20T23:26:18.628Z,101288.47
2022-09-20T23:28:21.873Z,101282.44
2022-09-20T23:30:23.824Z,101293.72
2022-09-20T23:32:25.935Z,101286.34
2022-09-20T23:34:27.915Z,101291.72
2022-09-20T23:36:31.403Z,101281.94
2022-09-20T23:38:33.345Z,101289.00
2022-09-20T23:40:35.410Z,101299.56
2022-09-20T23:42:37.539Z,101296.16
2022-09-20T23:44:39.583Z,101291.78
2022-09-20T23:46:41.568Z,101293.72
2022-09-20T23:48:43.928Z,101297.31
2022-09-20T23:50:45.870Z,101301.91
2022-09-20T23:52:47.851Z,101297.94
2022-09-20T23:54:49.831Z,101300.88
2022-09-20T23:56:51.765Z,101298.13
2022-09-20T23:58:54.168Z,101299.13
